createdAt,value
2023-03-22T00:01:24.110Z,8.96
2023-03-22T00:03:52.671Z,8.97
2023-03-22T00:06:20.422Z,8.95
2023-03-22T00:08:52.401Z,8.99
2023-03-22T00:11:22.793Z,9.07
2023-03-22T00:13:52.671Z,9.15
2023-03-22T00:16:21.918Z,9.20
2023-03-22T00:18:49.712Z,9.17
2023-03-22T00:21:17.646Z,9.06
2023-03-22T00:23:46.296Z,8.96
2023-03-22T00:26:15.003Z,8.91
2023-03-22T00:28:43.576Z,9.00
2023-03-22T00:31:11.761Z,9.06
2023-03-22T00:33:39.530Z,9.09
2023-03-22T00:36:10.390Z,9.05
2023-03-22T00:38:43.751Z,8.99
2023-03-22T00:41:17.813Z,8.88
2023-03-22T00:43:47.422Z,8.79
2023-03-22T00:46:16.575Z,8.74
2023-03-22T00:48:44.440Z,8.64
2023-03-22T00:51:13.427Z,8.61
2023-03-22T00:53:43.260Z,8.71
2023-03-22T00:56:16.124Z,8.74
2023-03-22T00:58:44.361Z,8.81
2023-03-22T01:01:15.155Z,8.86
2023-03-22T01:03:44.032Z,8.90
2023-03-22T01:06:14.639Z,8.92
2023-03-22T01:08:42.506Z,8.86
2023-03-22T01:11:10.358Z,8.79
2023-03-22T01:13:38.488Z,8.77
2023-03-22T01:16:06.895Z,8.72
2023-03-22T01:18:35.775Z,8.61
2023-03-22T01:21:03.745Z,8.61
2023-03-22T01:23:31.958Z,8.60
2023-03-22T01:25:59.944Z,8.72
2023-03-22T01:28:28.748Z,8.77
2023-03-22T01:30:56.594Z,8.78
2023-03-22T01:33:24.131Z,8.86
2023-03-22T01:35:52.065Z,8.88
2023-03-22T01:38:19.970Z,8.86
2023-03-22T01:40:48.645Z,8.92
2023-03-22T01:43:17.864Z,8.94
2023-03-22T01:45:50.398Z,8.99
2023-03-22T01:48:28.436Z,8.92
2023-03-22T01:51:20.605Z,8.91
2023-03-22T01:53:54.798Z,8.94
2023-03-22T01:56:25.685Z,8.91
2023-03-22T01:58:55.248Z,8.92
2023-03-22T02:01:25.765Z,9.08
2023-03-22T02:04:10.272Z,9.22
2023-03-22T02:06:39.205Z,9.34
2023-03-22T02:09:11.116Z,9.34
2023-03-22T02:11:44.021Z,9.34
2023-03-22T02:14:47.252Z,9.35
2023-03-22T02:17:31.798Z,9.44
2023-03-22T02:20:31.910Z,9.50
2023-03-22T02:23:23.986Z,9.48
2023-03-22T02:26:16.002Z,9.32
2023-03-22T02:28:52.461Z,9.30
2023-03-22T02:31:31.118Z,9.37
2023-03-22T02:34:21.365Z,9.39
2023-03-22T02:37:04.149Z,9.38
2023-03-22T02:39:37.631Z,9.46
2023-03-22T02:42:23.881Z,9.62
2023-03-22T02:44:59.647Z,9.76
2023-03-22T02:47:43.586Z,9.86
2023-03-22T02:50:38.204Z,9.98
2023-03-22T02:53:13.054Z,10.07
2023-03-22T02:55:46.632Z,10.15
2023-03-22T02:58:23.633Z,10.18
2023-03-22T03:00:56.627Z,10.24
2023-03-22T03:03:29.359Z,10.28
2023-03-22T03:06:01.603Z,10.31
2023-03-22T03:08:30.983Z,10.27
2023-03-22T03:11:00.056Z,10.26
2023-03-22T03:13:27.870Z,10.24
2023-03-22T03:16:00.318Z,10.15
2023-03-22T03:18:49.792Z,10.13
2023-03-22T03:21:45.455Z,10.06
2023-03-22T03:24:31.763Z,10.06
2023-03-22T03:27:07.290Z,10.07
2023-03-22T03:30:13.743Z,10.13
2023-03-22T03:33:09.541Z,10.21
2023-03-22T03:35:49.194Z,10.19
2023-03-22T03:38:22.519Z,10.23
2023-03-22T03:40:55.958Z,10.30
2023-03-22T03:43:25.700Z,10.31
2023-03-22T03:45:54.990Z,10.32
2023-03-22T03:48:29.278Z,10.36
2023-03-22T03:50:58.438Z,10.35
2023-03-22T03:53:26.079Z,10.39
2023-03-22T03:55:53.699Z,10.33
2023-03-22T03:58:21.810Z,10.36
2023-03-22T04:00:50.363Z,10.30
2023-03-22T04:03:18.816Z,10.29
2023-03-22T04:05:46.788Z,10.32
2023-03-22T04:08:14.652Z,10.38
2023-03-22T04:10:42.729Z,10.39
2023-03-22T04:13:10.436Z,10.44
2023-03-22T04:15:38.153Z,10.48
2023-03-22T04:18:07.219Z,10.46
2023-03-22T04:20:34.745Z,10.48
2023-03-22T04:23:02.361Z,10.51
2023-03-22T04:25:30.286Z,10.56
2023-03-22T04:28:00.587Z,10.43
2023-03-22T04:30:28.643Z,10.36
2023-03-22T04:32:58.325Z,10.31
2023-03-22T04:35:26.561Z,10.35
2023-03-22T04:37:54.421Z,10.40
2023-03-22T04:40:22.401Z,10.43
2023-03-22T04:42:51.478Z,10.48
2023-03-22T04:45:19.100Z,10.44
2023-03-22T04:47:47.627Z,10.45
2023-03-22T04:50:16.154Z,10.49
2023-03-22T04:52:44.117Z,10.47
2023-03-22T04:55:12.024Z,10.53
2023-03-22T04:57:39.561Z,10.57
2023-03-22T05:00:10.300Z,10.58
2023-03-22T05:02:41.798Z,10.61
2023-03-22T05:05:10.697Z,10.58
2023-03-22T05:07:39.317Z,10.41
2023-03-22T05:10:08.028Z,10.35
2023-03-22T05:12:35.704Z,10.33
2023-03-22T05:15:06.139Z,10.28
2023-03-22T05:17:33.938Z,10.26
2023-03-22T05:20:09.257Z,10.23
2023-03-22T05:22:41.212Z,10.27
2023-03-22T05:25:10.843Z,10.30
2023-03-22T05:27:39.237Z,10.32
2023-03-22T05:30:08.090Z,10.31
2023-03-22T05:32:37.702Z,10.33
2023-03-22T05:35:06.990Z,10.34
2023-03-22T05:37:34.866Z,10.36
2023-03-22T05:40:05.348Z,10.32
2023-03-22T05:42:33.593Z,10.28
2023-03-22T05:45:01.503Z,10.32
2023-03-22T05:47:29.398Z,10.38
2023-03-22T05:49:57.477Z,10.42
2023-03-22T05:52:25.570Z,10.46
2023-03-22T05:54:53.328Z,10.51
2023-03-22T05:57:21.163Z,10.54
2023-03-22T05:59:48.658Z,10.53
2023-03-22T06:02:17.484Z,10.58
2023-03-22T06:04:45.383Z,10.61
2023-03-22T06:07:13.930Z,10.67
2023-03-22T06:09:41.944Z,10.77
2023-03-22T06:12:10.312Z,10.79
2023-03-22T06:14:38.126Z,10.83
2023-03-22T06:17:06.217Z,10.85
2023-03-22T06:19:34.121Z,10.88
2023-03-22T06:22:02.426Z,10.96
2023-03-22T06:24:31.996Z,11.06
2023-03-22T06:27:00.368Z,11.18
2023-03-22T06:29:28.493Z,11.27
2023-03-22T06:31:56.998Z,11.36
2023-03-22T06:34:24.984Z,11.50
2023-03-22T06:36:53.541Z,11.59
2023-03-22T06:39:22.922Z,11.68
2023-03-22T06:41:51.708Z,11.79
2023-03-22T06:44:19.482Z,11.88
2023-03-22T06:46:53.417Z,11.98
2023-03-22T06:49:21.995Z,12.05
2023-03-22T06:51:51.097Z,12.10
2023-03-22T06:54:19.492Z,12.17
2023-03-22T06:56:47.037Z,12.28
2023-03-22T06:59:14.657Z,12.39
2023-03-22T07:01:42.563Z,12.49
2023-03-22T07:04:11.154Z,12.54
2023-03-22T07:06:38.982Z,12.59
2023-03-22T07:09:07.094Z,12.61
2023-03-22T07:11:34.835Z,12.63
2023-03-22T07:14:02.788Z,12.75
2023-03-22T07:16:32.468Z,12.79
2023-03-22T07:19:01.467Z,12.85
2023-03-22T07:21:29.688Z,12.94
2023-03-22T07:23:58.268Z,13.00
2023-03-22T07:26:27.721Z,13.12
2023-03-22T07:28:56.069Z,13.20
2023-03-22T07:31:26.750Z,13.29
2023-03-22T07:33:56.201Z,13.38
2023-03-22T07:36:25.779Z,13.48
2023-03-22T07:38:53.757Z,13.45
2023-03-22T07:41:24.088Z,13.49
2023-03-22T07:43:56.833Z,13.58
2023-03-22T07:46:30.397Z,13.67
2023-03-22T07:48:58.871Z,13.74
2023-03-22T07:51:27.941Z,13.84
2023-03-22T07:53:55.808Z,13.89
2023-03-22T07:56:23.494Z,13.99
2023-03-22T07:58:51.026Z,14.07
2023-03-22T08:01:18.989Z,14.09
2023-03-22T08:03:47.641Z,14.22
2023-03-22T08:06:18.921Z,14.24
2023-03-22T08:08:47.557Z,14.39
2023-03-22T08:11:15.626Z,14.56
2023-03-22T08:13:43.230Z,14.64
2023-03-22T08:16:11.604Z,14.73
2023-03-22T08:18:39.256Z,14.94
2023-03-22T08:21:07.431Z,15.14
2023-03-22T08:23:41.757Z,15.12
2023-03-22T08:26:14.177Z,15.35
2023-03-22T08:28:42.149Z,15.48
2023-03-22T08:31:15.536Z,15.58
2023-03-22T08:33:45.221Z,15.61
2023-03-22T08:36:17.006Z,15.76
2023-03-22T08:38:45.459Z,15.72
2023-03-22T08:41:13.889Z,15.89
2023-03-22T08:43:42.580Z,15.88
2023-03-22T08:46:10.560Z,15.97
2023-03-22T08:48:38.579Z,15.98
2023-03-22T08:51:06.817Z,16.18
2023-03-22T08:53:35.594Z,16.26
2023-03-22T08:56:04.829Z,16.43
2023-03-22T08:58:33.674Z,16.55
2023-03-22T09:01:06.090Z,16.67
2023-03-22T09:03:33.785Z,16.74
2023-03-22T09:06:01.339Z,16.81
2023-03-22T09:08:30.090Z,16.86
2023-03-22T09:10:58.159Z,16.84
2023-03-22T09:13:26.107Z,16.91
2023-03-22T09:15:54.451Z,16.92
2023-03-22T09:18:24.295Z,16.92
2023-03-22T09:20:52.857Z,16.88
2023-03-22T09:23:21.200Z,16.73
2023-03-22T09:25:49.152Z,16.68
2023-03-22T09:28:17.194Z,16.77
2023-03-22T09:30:46.618Z,16.81
2023-03-22T09:33:14.744Z,16.90
2023-03-22T09:35:43.837Z,16.96
2023-03-22T09:38:12.646Z,16.95
2023-03-22T09:40:52.171Z,17.05
2023-03-22T09:43:20.955Z,16.96
2023-03-22T09:45:51.225Z,17.09
2023-03-22T09:48:24.296Z,17.11
2023-03-22T09:50:54.098Z,17.07
2023-03-22T09:53:23.830Z,17.16
2023-03-22T09:56:02.084Z,17.17
2023-03-22T09:58:50.507Z,17.35
2023-03-22T10:01:48.718Z,17.48
2023-03-22T10:04:42.839Z,17.65
2023-03-22T10:07:37.424Z,17.84
2023-03-22T10:10:10.195Z,17.85
2023-03-22T10:12:50.217Z,17.82
2023-03-22T10:15:27.245Z,17.96
2023-03-22T10:17:57.841Z,18.16
2023-03-22T10:20:47.446Z,18.27
2023-03-22T10:23:20.905Z,18.35
2023-03-22T10:25:51.451Z,18.48
2023-03-22T10:28:30.310Z,18.63
2023-03-22T10:30:58.761Z,18.73
2023-03-22T10:33:52.703Z,18.75
2023-03-22T10:36:24.013Z,18.99
2023-03-22T10:39:04.153Z,19.18
2023-03-22T10:41:33.736Z,19.27
2023-03-22T10:44:03.161Z,19.29
2023-03-22T10:46:39.537Z,19.48
2023-03-22T10:49:13.394Z,19.52
2023-03-22T10:51:47.793Z,19.48
2023-03-22T10:54:18.870Z,19.54
2023-03-22T10:56:46.384Z,19.68
2023-03-22T10:59:47.404Z,19.76
2023-03-22T11:02:21.459Z,19.66
2023-03-22T11:04:58.163Z,19.54
2023-03-22T11:07:38.203Z,19.65
2023-03-22T11:10:09.282Z,19.37
2023-03-22T11:12:46.974Z,19.19
2023-03-22T11:15:20.301Z,19.26
2023-03-22T11:17:48.525Z,19.56
2023-03-22T11:20:19.407Z,19.56
2023-03-22T11:22:48.469Z,19.41
2023-03-22T11:25:22.077Z,19.59
2023-03-22T11:28:06.163Z,19.81
2023-03-22T11:30:34.462Z,20.07
2023-03-22T11:33:08.096Z,20.26
2023-03-22T11:35:38.303Z,20.52
2023-03-22T11:38:06.262Z,20.77
2023-03-22T11:40:55.117Z,20.64
2023-03-22T11:43:26.757Z,20.71
2023-03-22T11:45:57.565Z,21.52
2023-03-22T11:48:29.172Z,21.99
2023-03-22T11:51:06.398Z,22.29
2023-03-22T11:53:37.262Z,22.68
2023-03-22T11:56:07.683Z,22.20
2023-03-22T11:58:38.234Z,22.34
2023-03-22T12:01:07.073Z,22.58
2023-03-22T12:03:39.535Z,22.69
2023-03-22T12:06:23.005Z,22.20
2023-03-22T12:09:04.234Z,22.01
2023-03-22T12:11:42.006Z,22.35
2023-03-22T12:14:35.789Z,22.36
2023-03-22T12:17:27.933Z,22.27
2023-03-22T12:20:06.272Z,22.22
2023-03-22T12:22:41.846Z,22.27
2023-03-22T12:25:19.322Z,21.81
2023-03-22T12:28:00.697Z,21.21
2023-03-22T12:30:33.961Z,21.15
2023-03-22T12:33:16.497Z,21.10
2023-03-22T12:35:46.814Z,21.35
2023-03-22T12:38:28.216Z,21.47
2023-03-22T12:41:00.558Z,21.68
2023-03-22T12:43:44.693Z,21.52
2023-03-22T12:46:21.431Z,22.04
2023-03-22T12:48:54.020Z,22.18
2023-03-22T12:51:21.891Z,22.21
2023-03-22T12:53:53.271Z,22.30
2023-03-22T12:56:30.050Z,22.22
2023-03-22T12:59:04.991Z,22.36
2023-03-22T13:02:30.148Z,22.06
2023-03-22T13:05:02.187Z,22.33
2023-03-22T13:07:47.691Z,22.07
2023-03-22T13:10:30.586Z,21.96
2023-03-22T13:13:22.159Z,22.23
2023-03-22T13:15:58.010Z,22.28
2023-03-22T13:18:43.294Z,22.12
2023-03-22T13:21:17.599Z,21.98
2023-03-22T13:24:09.939Z,21.37
2023-03-22T13:26:55.305Z,21.20
2023-03-22T13:29:44.750Z,21.07
2023-03-22T13:32:33.803Z,20.75
2023-03-22T13:35:01.695Z,20.74
2023-03-22T13:37:35.991Z,20.75
2023-03-22T13:40:43.096Z,20.64
2023-03-22T13:43:16.732Z,20.62
2023-03-22T13:46:17.902Z,20.41
2023-03-22T13:48:49.596Z,20.37
2023-03-22T13:51:23.517Z,20.43
2023-03-22T13:54:00.556Z,20.34
2023-03-22T13:56:52.398Z,20.30
2023-03-22T13:59:33.737Z,20.15
2023-03-22T14:02:12.009Z,20.07
2023-03-22T14:04:44.858Z,20.06
2023-03-22T14:07:15.260Z,19.95
2023-03-22T14:09:49.622Z,19.90
2023-03-22T14:12:31.347Z,19.71
2023-03-22T14:15:04.659Z,19.56
2023-03-22T14:18:06.360Z,19.52
2023-03-22T14:20:37.098Z,19.41
